Ashcroft, Canada
Current Conditions -  °F | °C
As of 6:20 AM on Wednesday 28 Jan 2015 (Local Time) from CYKA Reporting Station
Drizzle Drizzle  
Wind Chill: 29°   Ceiling: 700
Heat Index: 34°   Visibility: 6mi
Dew Point: 32°   Wind: 6mph
Humidity: 93%   Direction: 250°WSW
Pressure: 30.37"   Gusts: NA
Location:  50.72°N, 121.27°W
Report Text: CYKA 281420Z 25005KT 6SM -DZ BR OVC007 01/M00 A3037 RMK SC8 SLP300
Loading
Personal Weather Stations






























Interactive Weather Map New forecast layout! Learn more

10-Day Weather Forecast

Advertisements
Track Severe Weather on mobile